createdAt,value
2023-01-17T00:05:04.936Z,56.40
2023-01-17T00:11:07.168Z,56.13
2023-01-17T00:17:09.185Z,59.95
2023-01-17T00:23:33.700Z,61.35
2023-01-17T00:29:35.666Z,57.60
2023-01-17T00:35:37.952Z,67.50
2023-01-17T00:41:39.923Z,59.75
2023-01-17T00:48:04.077Z,42.70
2023-01-17T00:54:25.385Z,46.83
2023-01-17T01:00:46.319Z,59.10
2023-01-17T01:07:06.887Z,58.03
2023-01-17T01:13:27.873Z,51.78
2023-01-17T01:19:49.339Z,58.75
2023-01-17T01:26:10.889Z,60.78
2023-01-17T01:32:31.726Z,66.85
2023-01-17T01:38:33.800Z,56.30
2023-01-17T01:44:45.134Z,65.30
2023-01-17T01:50:48.747Z,61.83
2023-01-17T01:56:52.823Z,70.32
2023-01-17T02:02:58.461Z,60.60
2023-01-17T02:09:05.884Z,54.83
2023-01-17T02:15:08.651Z,60.22
2023-01-17T02:21:13.608Z,61.45
2023-01-17T02:27:27.825Z,55.38
2023-01-17T02:33:48.643Z,61.80
2023-01-17T02:40:03.056Z,58.53
2023-01-17T02:46:05.413Z,60.13
2023-01-17T02:52:36.179Z,56.17
2023-01-17T02:59:02.335Z,58.38
2023-01-17T03:05:20.232Z,53.55
2023-01-17T03:11:22.724Z,65.20
2023-01-17T03:17:29.276Z,50.33
2023-01-17T03:23:31.685Z,60.83
2023-01-17T03:29:34.145Z,57.88
2023-01-17T03:35:36.377Z,55.05
2023-01-17T03:41:38.926Z,59.70
2023-01-17T03:47:41.771Z,50.67
2023-01-17T03:53:46.980Z,50.03
2023-01-17T03:59:49.666Z,50.78
2023-01-17T04:05:52.170Z,58.60
2023-01-17T04:11:54.428Z,47.22
2023-01-17T04:17:56.839Z,61.20
2023-01-17T04:23:59.220Z,45.55
2023-01-17T04:30:01.425Z,57.75
2023-01-17T04:36:03.872Z,67.70
2023-01-17T04:42:06.439Z,51.60
2023-01-17T04:54:10.979Z,50.30
2023-01-17T05:00:13.886Z,50.17
2023-01-17T05:06:16.259Z,47.53
2023-01-17T05:12:25.731Z,54.30
2023-01-17T05:18:27.818Z,52.95
2023-01-17T05:24:31.259Z,57.50
2023-01-17T05:30:33.706Z,50.60
2023-01-17T05:36:36.065Z,50.22
2023-01-17T05:42:38.777Z,49.35
2023-01-17T05:54:43.152Z,52.95
2023-01-17T06:00:45.699Z,54.70
2023-01-17T06:12:49.885Z,47.72
2023-01-17T06:18:52.089Z,50.92
2023-01-17T06:24:54.679Z,45.85
2023-01-17T06:30:57.036Z,53.45
2023-01-17T06:36:59.473Z,45.25
2023-01-17T06:43:03.099Z,56.70
2023-01-17T06:49:05.680Z,61.67
2023-01-17T06:55:09.035Z,71.55
2023-01-17T07:01:13.180Z,51.60
2023-01-17T07:07:16.064Z,50.63
2023-01-17T07:13:18.652Z,54.17
2023-01-17T07:25:23.246Z,95.20
2023-01-17T07:31:25.487Z,56.45
2023-01-17T07:37:27.686Z,63.60
2023-01-17T07:43:30.288Z,59.25
2023-01-17T07:55:34.820Z,57.30
2023-01-17T08:01:37.432Z,56.13
2023-01-17T08:07:40.025Z,56.45
2023-01-17T08:13:42.222Z,71.18
2023-01-17T08:19:45.203Z,55.25
2023-01-17T08:25:47.375Z,57.92
2023-01-17T08:31:50.153Z,75.55
2023-01-17T08:37:54.620Z,64.00
2023-01-17T08:43:57.087Z,59.53
2023-01-17T08:50:02.011Z,61.85
2023-01-17T08:56:05.751Z,70.50
2023-01-17T09:02:15.374Z,78.13
2023-01-17T09:08:17.508Z,70.88
2023-01-17T09:14:19.785Z,58.33
2023-01-17T09:20:22.152Z,63.97
2023-01-17T09:26:29.957Z,59.45
2023-01-17T09:32:32.360Z,62.15
2023-01-17T09:38:34.610Z,61.17
2023-01-17T09:44:45.143Z,54.28
2023-01-17T09:50:53.653Z,67.50
2023-01-17T09:57:04.789Z,59.15
2023-01-17T10:03:31.704Z,58.15
2023-01-17T10:09:44.614Z,55.25
2023-01-17T10:15:54.680Z,64.97
2023-01-17T10:22:31.412Z,58.08
2023-01-17T10:28:40.706Z,48.25
2023-01-17T10:34:50.241Z,48.90
2023-01-17T10:41:16.639Z,47.53
2023-01-17T10:47:24.616Z,53.72
2023-01-17T10:53:48.233Z,37.03
2023-01-17T11:06:15.170Z,25.23
2023-01-17T11:12:25.169Z,33.80
2023-01-17T11:18:30.134Z,33.58
2023-01-17T11:24:40.671Z,31.42
2023-01-17T11:30:52.600Z,22.08
2023-01-17T11:37:18.237Z,23.70
2023-01-17T11:43:27.991Z,25.13
2023-01-17T11:49:30.042Z,22.00
2023-01-17T11:55:32.233Z,23.03
2023-01-17T12:02:15.902Z,22.63
2023-01-17T12:08:39.615Z,24.58
2023-01-17T12:15:09.609Z,17.23
2023-01-17T12:21:28.324Z,21.50
2023-01-17T12:27:53.964Z,25.98
2023-01-17T12:34:02.640Z,15.13
2023-01-17T12:40:07.927Z,17.83
2023-01-17T12:46:21.551Z,25.17
2023-01-17T12:52:45.563Z,19.27
2023-01-17T12:58:52.471Z,15.02
2023-01-17T13:04:59.670Z,9.32
2023-01-17T13:11:28.422Z,22.63
2023-01-17T13:18:01.732Z,7.00
2023-01-17T13:24:23.080Z,6.28
2023-01-17T13:31:03.327Z,8.88
2023-01-17T13:37:33.742Z,5.18
2023-01-17T13:43:39.559Z,12.60
2023-01-17T13:49:42.272Z,7.45
2023-01-17T14:01:52.357Z,13.25
2023-01-17T14:08:02.480Z,9.95
2023-01-17T14:14:44.567Z,10.68
2023-01-17T14:20:50.301Z,23.15
2023-01-17T14:26:59.705Z,28.58
2023-01-17T14:33:12.826Z,14.23
2023-01-17T14:45:28.384Z,18.17
2023-01-17T14:51:35.204Z,15.38
2023-01-17T14:57:37.405Z,21.75
2023-01-17T15:03:51.409Z,25.30
2023-01-17T15:09:53.531Z,33.90
2023-01-17T15:16:07.690Z,26.63
2023-01-17T15:22:10.631Z,46.33
2023-01-17T15:28:13.752Z,45.67
2023-01-17T15:34:34.724Z,32.47
2023-01-17T15:40:43.911Z,58.50
2023-01-17T15:46:46.347Z,51.50
2023-01-17T15:52:49.826Z,52.03
2023-01-17T15:58:54.948Z,51.35
2023-01-17T16:04:57.523Z,46.93
2023-01-17T16:11:06.464Z,53.00
2023-01-17T16:17:16.272Z,62.90
2023-01-17T16:23:18.920Z,61.22
2023-01-17T16:29:20.969Z,59.55
2023-01-17T16:35:24.183Z,56.88
2023-01-17T16:41:26.463Z,54.92
2023-01-17T16:47:28.597Z,60.75
2023-01-17T16:53:30.875Z,54.90
2023-01-17T16:59:49.639Z,58.53
2023-01-17T17:05:57.613Z,54.55
2023-01-17T17:12:00.061Z,59.17
2023-01-17T17:18:02.299Z,55.63
2023-01-17T17:24:05.052Z,78.88
2023-01-17T17:36:12.620Z,60.25
2023-01-17T17:42:17.018Z,59.75
2023-01-17T17:48:20.798Z,63.05
2023-01-17T17:54:24.947Z,80.18
2023-01-17T18:00:27.723Z,69.20
2023-01-17T18:12:32.359Z,69.15
2023-01-17T18:18:36.681Z,75.80
2023-01-17T18:24:38.901Z,72.18
2023-01-17T18:30:41.246Z,66.50
2023-01-17T18:36:44.383Z,73.53
2023-01-17T18:42:48.775Z,64.97
2023-01-17T18:48:50.852Z,56.78
2023-01-17T18:54:52.901Z,58.27
2023-01-17T19:00:55.588Z,65.50
2023-01-17T19:13:00.689Z,56.53
2023-01-17T19:19:07.134Z,59.40
2023-01-17T19:25:09.309Z,56.42
2023-01-17T19:31:16.503Z,57.23
2023-01-17T19:37:18.706Z,67.55
2023-01-17T19:43:21.273Z,56.23
2023-01-17T19:49:25.034Z,59.78
2023-01-17T19:55:27.157Z,49.80
2023-01-17T20:01:31.700Z,46.67
2023-01-17T20:07:34.268Z,44.40
2023-01-17T20:13:36.629Z,42.30
2023-01-17T20:19:38.808Z,38.30
2023-01-17T20:25:41.154Z,37.22
2023-01-17T20:31:44.595Z,37.33
2023-01-17T20:37:47.265Z,37.13
2023-01-17T20:43:54.731Z,28.10
2023-01-17T20:49:57.806Z,21.27
2023-01-17T20:56:00.023Z,32.60
2023-01-17T21:02:02.467Z,29.35
2023-01-17T21:08:05.440Z,17.05
2023-01-17T21:14:07.762Z,30.60
2023-01-17T21:20:14.210Z,21.50
2023-01-17T21:26:18.037Z,27.35
2023-01-17T21:32:20.372Z,26.90
2023-01-17T21:38:22.849Z,23.75
2023-01-17T21:44:26.375Z,20.67
2023-01-17T21:50:33.404Z,31.17
2023-01-17T21:56:55.018Z,30.52
2023-01-17T22:02:58.965Z,25.60
2023-01-17T22:09:01.540Z,23.80
2023-01-17T22:15:04.351Z,24.50
2023-01-17T22:27:13.924Z,16.77
2023-01-17T22:33:16.331Z,13.93
2023-01-17T22:39:18.311Z,19.35
2023-01-17T22:45:20.491Z,18.43
2023-01-17T22:51:26.772Z,12.85
2023-01-17T22:57:29.034Z,15.93
2023-01-17T23:03:31.817Z,10.43
2023-01-17T23:15:58.173Z,16.08
2023-01-17T23:22:16.918Z,8.27
2023-01-17T23:28:21.326Z,13.65
2023-01-17T23:34:23.439Z,19.52
2023-01-17T23:40:25.647Z,7.97
2023-01-17T23:46:29.079Z,10.77
2023-01-17T23:52:31.258Z,10.95
2023-01-17T23:58:35.066Z,9.47
